windsock image

Welcome to Bigfield Strip.

anemometer image
     

 Help for dials.  
 
Local Met:

Wind:   
10 Min average:  
279 ° / 7.6 kts (8.7)
315° / 8.1

Temperature:  
8.2°C C
Dew Point:  
3.5°C C
QNH:  
Trend:  
1016.2 mb mb
+0.5mb/hr
BigField Strip. This image updates approximately every minute, it can have a two minute delay.  
 

Humidity:  
72 %
Sunrise:   08:07z
Sunset:   15:54z
Updated:  
  UTC
 
   More met info, trends, radar, history etc. available here   

LUTON Metar   EGGW 191450Z 26017KT 9999 FEW039 07/02 Q1015
 
  TAF   2014/12/19 12:15 TAF EGGW 191102Z 1912/2012 27014KT 9999 SCT025 PROB30 TEMPO 2009/2012 26012G25KT
 
BENSON Metar   EGUB 191450Z 25012KT 9999 FEW030 09/01 Q1017 BLU NOSIG
 
  TAF   2014/12/19 15:03 TAF EGUB 191343Z 1915/1918 26012KT 9999 FEW030 PROB30 TEMPO 1915/1918 26015G25KT
 
Big Field view 1 icon   Big Field view 2 icon   Big Field view 3 icon   Chart AL3a in PDF icon   Chart AL3a in Word icon

WARNING:
This information is provided by the Airstrip unofficial weather station, DO NOT depend on the data provided here for any purpose.
This page is updated for latest Metars & TAF's every 5 minutes. Refresh the browser to check for the lastest.
Page designed for a minimum browser size of 1024x768.
© Copyright 2014 BigField Strip. This page auto generated 15:06 UTC - 19/12/2014   Contact Us
Valid HTML 4.01 Transitional     Windows uptime: 4 Days 12 Hours 34 Minutes 27 Seconds    WD started: 02:37 15/12/14    Free memory: 1518MB     Valid CSS!